createdAt,value
2022-12-31T00:00:08.137Z,198.6
2022-12-31T00:05:08.769Z,170.5
2022-12-31T00:10:06.585Z,147.4
2022-12-31T00:15:06.587Z,127.7
2022-12-31T00:20:06.665Z,118.6
2022-12-31T00:25:06.747Z,155.3
2022-12-31T00:30:06.842Z,116.3
2022-12-31T00:35:07.019Z,104.4
2022-12-31T00:40:07.005Z,104.9
2022-12-31T00:45:06.981Z,85.5
2022-12-31T00:50:07.149Z,81.4
2022-12-31T00:55:07.193Z,87.4
2022-12-31T01:00:06.630Z,110.4
2022-12-31T01:05:06.400Z,154.7
2022-12-31T01:10:06.394Z,125.7
2022-12-31T01:15:06.823Z,115.1
2022-12-31T01:20:06.880Z,93.6
2022-12-31T01:25:06.968Z,109.1
2022-12-31T01:30:06.921Z,91.2
2022-12-31T01:35:06.507Z,84.9
2022-12-31T01:40:06.611Z,78.3
2022-12-31T01:45:06.676Z,81.8
2022-12-31T01:50:06.878Z,65.7
2022-12-31T01:55:07.101Z,78
2022-12-31T02:00:06.626Z,105.2
2022-12-31T02:05:06.247Z,108.4
2022-12-31T02:10:06.923Z,130.9
2022-12-31T02:15:06.913Z,149
2022-12-31T02:20:06.548Z,133.4
2022-12-31T02:25:07.085Z,119.5
2022-12-31T02:30:07.193Z,112.4
2022-12-31T02:35:06.451Z,104
2022-12-31T02:40:06.230Z,80.9
2022-12-31T02:45:07.239Z,82
2022-12-31T02:50:06.673Z,59.3
2022-12-31T02:55:07.039Z,96.8
2022-12-31T03:00:06.476Z,70.4
2022-12-31T03:05:06.723Z,68.5
2022-12-31T03:10:06.880Z,64.3
2022-12-31T03:15:07.205Z,50.3
2022-12-31T03:20:07.159Z,55.6
2022-12-31T03:25:06.733Z,61.5
2022-12-31T03:30:06.814Z,67
2022-12-31T03:35:06.920Z,69.4
2022-12-31T03:40:06.587Z,77.8
2022-12-31T03:45:06.977Z,84.5
2022-12-31T03:50:07.092Z,70.9
2022-12-31T03:55:07.080Z,66.3
2022-12-31T04:00:07.314Z,59
2022-12-31T04:05:06.975Z,62.9
2022-12-31T04:10:07.018Z,60.6
2022-12-31T04:15:07.113Z,59.8
2022-12-31T04:20:06.410Z,53.4
2022-12-31T04:25:06.502Z,47.2
2022-12-31T04:30:06.550Z,57.2
2022-12-31T04:35:06.621Z,50.8
2022-12-31T04:40:06.625Z,46.7
2022-12-31T04:45:06.669Z,39
2022-12-31T04:50:06.653Z,41.4
2022-12-31T04:55:06.776Z,33.8
2022-12-31T05:00:06.954Z,32.2
2022-12-31T05:05:06.718Z,37.1
2022-12-31T05:10:06.994Z,28.5
2022-12-31T05:15:06.515Z,31.1
2022-12-31T05:20:06.683Z,44.3
2022-12-31T05:25:06.843Z,42.8
2022-12-31T05:30:07.019Z,45.1
2022-12-31T05:35:07.068Z,47
2022-12-31T05:40:07.141Z,41.4
2022-12-31T05:45:07.194Z,47.5
2022-12-31T05:50:06.490Z,34.4
2022-12-31T05:55:06.603Z,41
2022-12-31T06:00:06.813Z,38.6
2022-12-31T06:05:06.339Z,43.1
2022-12-31T06:10:06.496Z,65
2022-12-31T06:15:06.672Z,81.2
2022-12-31T06:20:06.606Z,55.1
2022-12-31T06:25:06.672Z,59
2022-12-31T06:30:06.593Z,74.4
2022-12-31T06:35:06.612Z,67.9
2022-12-31T06:40:06.650Z,53.9
2022-12-31T06:45:07.018Z,51.9
2022-12-31T06:50:07.107Z,60.6
2022-12-31T06:55:06.246Z,106.2
2022-12-31T07:00:06.460Z,116.1
2022-12-31T07:05:07.089Z,95.1
2022-12-31T07:10:06.571Z,108.5
2022-12-31T07:15:06.589Z,95
2022-12-31T07:20:07.115Z,120.9
2022-12-31T07:25:06.998Z,103.4
2022-12-31T07:30:07.163Z,105.3
2022-12-31T07:35:06.780Z,116.3
2022-12-31T07:40:06.511Z,130.4
2022-12-31T07:45:06.388Z,122.2
2022-12-31T07:50:06.764Z,108
2022-12-31T07:55:06.821Z,94.5
2022-12-31T08:00:06.886Z,141.9
2022-12-31T08:05:06.625Z,170.7
2022-12-31T08:10:06.429Z,156.4
2022-12-31T08:15:06.921Z,91.5
2022-12-31T08:20:07.091Z,68.7
2022-12-31T08:25:07.096Z,73.8
2022-12-31T08:30:06.439Z,45.7
2022-12-31T08:35:06.311Z,47
2022-12-31T08:40:06.653Z,50.2
2022-12-31T08:45:06.616Z,41.9
2022-12-31T08:50:07.009Z,53.4
2022-12-31T08:55:07.160Z,40.7
2022-12-31T09:00:06.424Z,49.3
2022-12-31T09:05:07.063Z,57.2
2022-12-31T09:10:07.178Z,57.4
2022-12-31T09:15:06.488Z,60
2022-12-31T09:20:07.025Z,66.9
2022-12-31T09:25:06.543Z,66
2022-12-31T09:30:06.713Z,64.8
2022-12-31T09:35:07.030Z,62.9
2022-12-31T09:40:07.081Z,68.5
2022-12-31T09:45:06.828Z,45.5
2022-12-31T09:50:06.857Z,47.1
2022-12-31T09:55:07.098Z,45.7
2022-12-31T10:00:06.578Z,49.5
2022-12-31T10:05:06.539Z,52.7
2022-12-31T10:10:06.870Z,51
2022-12-31T10:15:06.880Z,56.1
2022-12-31T10:20:06.591Z,92.6
2022-12-31T10:25:06.443Z,59.3
2022-12-31T10:30:06.968Z,57.7
2022-12-31T10:35:06.242Z,58.2
2022-12-31T10:40:07.018Z,73.9
2022-12-31T10:45:06.163Z,52.7
2022-12-31T10:50:06.956Z,44.3
2022-12-31T10:55:06.308Z,57.4
2022-12-31T11:00:06.786Z,55.7
2022-12-31T11:05:06.994Z,48
2022-12-31T11:10:06.590Z,41
2022-12-31T11:15:06.195Z,43.2
2022-12-31T11:20:06.171Z,39.1
2022-12-31T11:25:06.657Z,45.6
2022-12-31T11:30:06.355Z,47.1
2022-12-31T11:35:06.291Z,42.2
2022-12-31T11:40:06.452Z,45.4
2022-12-31T11:45:06.768Z,36
2022-12-31T11:50:06.988Z,34.8
2022-12-31T11:55:07.040Z,32
2022-12-31T12:00:06.275Z,41.7
2022-12-31T12:05:06.658Z,41
2022-12-31T12:10:06.997Z,31.5
2022-12-31T12:15:06.513Z,38.4
2022-12-31T12:20:06.816Z,39.2
2022-12-31T12:25:06.667Z,25.3
2022-12-31T12:30:07.001Z,30.4
2022-12-31T12:35:06.621Z,41.6
2022-12-31T12:40:06.191Z,23.5
2022-12-31T12:45:06.171Z,19.6
2022-12-31T12:50:06.512Z,31
2022-12-31T12:55:06.845Z,26.4
2022-12-31T13:00:06.311Z,37
2022-12-31T13:05:06.692Z,20.5
2022-12-31T13:10:06.668Z,28.6
2022-12-31T13:15:06.224Z,46.9
2022-12-31T13:20:06.659Z,28.3
2022-12-31T13:25:06.612Z,35.9
2022-12-31T13:30:06.211Z,40.4
2022-12-31T13:35:06.531Z,42.1
2022-12-31T13:40:06.607Z,35.2
2022-12-31T13:45:06.659Z,43.4
2022-12-31T13:50:06.232Z,35.7
2022-12-31T13:55:06.888Z,39.6
2022-12-31T14:00:06.574Z,46
2022-12-31T14:05:06.525Z,41.3
2022-12-31T14:10:06.607Z,65.4
2022-12-31T14:15:06.810Z,40.7
2022-12-31T14:20:06.287Z,49.6
2022-12-31T14:25:06.326Z,36.5
2022-12-31T14:30:06.093Z,40.6
2022-12-31T14:35:06.617Z,52.6
2022-12-31T14:40:06.526Z,34
2022-12-31T14:45:06.527Z,47.3
2022-12-31T14:50:06.924Z,63.7
2022-12-31T14:55:06.305Z,47.7
2022-12-31T15:00:06.864Z,64.5
2022-12-31T15:05:06.898Z,69.2
2022-12-31T15:10:06.415Z,67.1
2022-12-31T15:15:06.908Z,64.3
2022-12-31T15:20:07.024Z,68.8
2022-12-31T15:25:06.428Z,115.9
2022-12-31T15:30:06.625Z,338.1
2022-12-31T15:35:06.838Z,337.4
2022-12-31T15:40:06.382Z,303.2
2022-12-31T15:45:06.876Z,256.3
2022-12-31T15:50:06.868Z,224.5
2022-12-31T15:55:06.083Z,247.6
2022-12-31T16:00:06.430Z,219.9
2022-12-31T16:05:06.808Z,214.1
2022-12-31T16:10:07.046Z,224.1
2022-12-31T16:15:06.388Z,203.5
2022-12-31T16:20:06.685Z,253.5
2022-12-31T16:25:06.901Z,176.8
2022-12-31T16:30:06.083Z,220.2
2022-12-31T16:35:06.389Z,156.5
2022-12-31T16:40:07.042Z,132.9
2022-12-31T16:45:06.292Z,94.3
2022-12-31T16:50:06.648Z,91.4
2022-12-31T16:55:06.967Z,91.5
2022-12-31T17:00:06.359Z,111.7
2022-12-31T17:05:06.432Z,137
2022-12-31T17:10:06.728Z,164.2
2022-12-31T17:15:07.018Z,147.5
2022-12-31T17:20:06.633Z,149.1
2022-12-31T17:25:06.922Z,140
2022-12-31T17:30:06.274Z,133.9
2022-12-31T17:35:06.875Z,148.5
2022-12-31T17:40:06.393Z,158.5
2022-12-31T17:45:06.498Z,133.3
2022-12-31T17:50:06.686Z,134.4
2022-12-31T17:55:07.021Z,82.1
2022-12-31T18:00:06.532Z,65.2
2022-12-31T18:05:07.050Z,54.4
2022-12-31T18:10:06.315Z,71.2
2022-12-31T18:15:06.432Z,105.8
2022-12-31T18:20:06.728Z,176.2
2022-12-31T18:25:07.028Z,60.7
2022-12-31T18:30:06.445Z,69.8
2022-12-31T18:35:06.649Z,58.3
2022-12-31T18:40:07.068Z,65.7
2022-12-31T18:45:06.358Z,65.3
2022-12-31T18:50:06.599Z,80.7
2022-12-31T18:55:06.898Z,78.1
2022-12-31T19:00:06.356Z,82.3
2022-12-31T19:05:06.360Z,93.4
2022-12-31T19:10:07.004Z,104.5
2022-12-31T19:15:06.376Z,131.4
2022-12-31T19:20:06.304Z,103.3
2022-12-31T19:25:06.465Z,115.3
2022-12-31T19:30:06.770Z,136.2
2022-12-31T19:35:07.093Z,89.3
2022-12-31T19:40:06.429Z,87.7
2022-12-31T19:45:06.943Z,226.4
2022-12-31T19:50:06.170Z,203.7
2022-12-31T19:55:06.482Z,185.2
2022-12-31T20:00:06.985Z,171.4
2022-12-31T20:05:06.105Z,169.2
2022-12-31T20:10:06.430Z,163.5
2022-12-31T20:15:06.712Z,175.8
2022-12-31T20:20:06.868Z,134
2022-12-31T20:25:06.105Z,118.7
2022-12-31T20:30:06.382Z,86
2022-12-31T20:35:06.229Z,108.4
2022-12-31T20:40:06.523Z,110.1
2022-12-31T20:45:06.832Z,153.5
2022-12-31T20:50:06.140Z,139.9
2022-12-31T20:55:06.375Z,127.9
2022-12-31T21:00:06.521Z,172.2
2022-12-31T21:05:06.507Z,157.1
2022-12-31T21:10:06.755Z,193.3
2022-12-31T21:15:07.088Z,230.9
2022-12-31T21:20:06.520Z,208
2022-12-31T21:25:06.854Z,244.2
2022-12-31T21:30:06.192Z,179.5
2022-12-31T21:35:06.561Z,143.6
2022-12-31T21:40:06.195Z,134
2022-12-31T21:45:06.393Z,114.1
2022-12-31T21:50:06.732Z,129.3
2022-12-31T21:55:06.952Z,129.8
2022-12-31T22:00:06.498Z,145.8
2022-12-31T22:05:06.719Z,190.2
2022-12-31T22:10:06.475Z,192.1
2022-12-31T22:15:06.103Z,157.6
2022-12-31T22:20:06.442Z,153.1
2022-12-31T22:25:06.703Z,140.1
2022-12-31T22:30:07.009Z,141
2022-12-31T22:35:06.278Z,162.4
2022-12-31T22:40:06.638Z,131.5
2022-12-31T22:45:06.838Z,139.3
2022-12-31T22:50:06.436Z,160.5
2022-12-31T22:55:06.676Z,86.7
2022-12-31T23:00:07.157Z,92.3
2022-12-31T23:05:06.411Z,276.8
2022-12-31T23:10:06.799Z,132.7
2022-12-31T23:15:07.059Z,302.8
2022-12-31T23:20:06.322Z,246.6
2022-12-31T23:25:06.680Z,180.2
2022-12-31T23:30:07.005Z,118.7
2022-12-31T23:35:06.891Z,81
2022-12-31T23:40:06.158Z,141.4
2022-12-31T23:45:06.508Z,196.4
2022-12-31T23:50:06.925Z,186.6
2022-12-31T23:55:06.281Z,182.5
